< < Back
Terminal Aerodrome Forecast


Current Version              Previous Versions:   1  2  3  4  5  6  7  8  9  

Terminal Aerodrome Forecast

235
FTUS42 KGSP 240531
TAFCLT
TAF
KCLT 240531Z 2406/2506 20004KT P6SM FEW250
      TEMPO 2410/2412 5SM BR
     FM241900 20006KT P6SM SCT250=

Latest METAR

611
SAUS70 KWBC 242000 RRH
MTRCLT
METAR KCLT 241952Z 24006KT 10SM FEW060 SCT250 35/19 A3001 RMK AO2 SLP153
T03500189


USA.gov is the U.S. government's official web portal to all federal, state and local government web resources and services.